Kenwood, California
Current Conditions -  °F | °C
As of 12:15 AM on Friday 28 Nov 2014 (Local Time) from KO69 Reporting Station
Overcast Overcast  
Wind Chill: 46°   Ceiling: 200
Heat Index: 46°   Visibility: 0mi
Dew Point: 46°   Wind: 0mph
Humidity: 100%   Direction: NA
Pressure: 30.08"   Gusts: NA
Location:  38.41°N, 122.55°W
Report Text: KO69 280815Z AUTO 00000KT M1/4SM OVC002 08/08 A3008 RMK AO1
Loading
Personal Weather Stations






























Interactive Weather Map New forecast layout! Learn more

10-Day Weather Forecast

Advertisements
Track Severe Weather on mobile